createdAt,value
2022-08-05T00:00:46.706Z,77.11
2022-08-05T00:01:49.011Z,77.55
2022-08-05T00:02:39.186Z,77.14
2022-08-05T00:03:38.065Z,78.04
2022-08-05T00:04:38.080Z,78.04
2022-08-05T00:06:04.662Z,77.94
2022-08-05T00:06:39.074Z,78.14
2022-08-05T00:08:01.077Z,78.34
2022-08-05T00:08:39.061Z,77.91
2022-08-05T00:09:38.008Z,78.41
2022-08-05T00:10:39.028Z,78.30
2022-08-05T00:11:48.335Z,78.41
2022-08-05T00:12:55.800Z,78.84
2022-08-05T00:13:40.102Z,79.04
2022-08-05T00:14:37.943Z,79.64
2022-08-05T00:15:55.851Z,79.44
2022-08-05T00:16:52.870Z,79.74
2022-08-05T00:17:38.951Z,78.80
2022-08-05T00:18:38.110Z,78.00
2022-08-05T00:19:40.687Z,77.61
2022-08-05T00:20:38.916Z,77.40
2022-08-05T00:21:37.911Z,77.31
2022-08-05T00:22:37.894Z,77.11
2022-08-05T00:23:46.044Z,77.21
2022-08-05T00:24:42.483Z,77.57
2022-08-05T00:25:45.908Z,77.57
2022-08-05T00:26:38.844Z,77.57
2022-08-05T00:27:39.438Z,77.67
2022-08-05T00:28:37.790Z,77.17
2022-08-05T00:29:38.414Z,76.97
2022-08-05T00:30:37.768Z,77.97
2022-08-05T00:31:53.274Z,78.07
2022-08-05T00:32:38.757Z,77.83
2022-08-05T00:34:54.965Z,77.27
2022-08-05T00:34:55.195Z,76.87
2022-08-05T00:35:38.717Z,77.17
2022-08-05T00:37:10.544Z,77.77
2022-08-05T00:37:53.011Z,77.97
2022-08-05T00:38:38.677Z,78.17
2022-08-05T00:39:44.528Z,78.27
2022-08-05T00:40:38.678Z,78.41
2022-08-05T00:41:51.449Z,78.41
2022-08-05T00:42:38.654Z,78.80
2022-08-05T00:43:46.445Z,79.10
2022-08-05T00:44:38.627Z,79.80
2022-08-05T00:45:42.812Z,78.90
2022-08-05T00:46:43.640Z,79.10
2022-08-05T00:47:56.020Z,78.70
2022-08-05T00:48:50.989Z,78.70
2022-08-05T00:49:44.449Z,78.60
2022-08-05T00:50:38.551Z,79.70
2022-08-05T00:51:51.400Z,79.60
2022-08-05T00:52:39.146Z,79.30
2022-08-05T00:54:01.264Z,79.34
2022-08-05T00:54:38.510Z,79.20
2022-08-05T00:55:42.476Z,79.94
2022-08-05T00:56:38.525Z,79.80
2022-08-05T00:57:58.751Z,79.80
2022-08-05T00:58:38.485Z,79.70
2022-08-05T00:59:44.583Z,79.80
2022-08-05T01:00:38.546Z,79.80
2022-08-05T01:01:48.673Z,79.84
2022-08-05T01:02:38.439Z,80.14
2022-08-05T01:03:37.478Z,80.04
2022-08-05T01:04:37.423Z,79.84
2022-08-05T01:05:37.397Z,79.84
2022-08-05T01:06:37.375Z,80.04
2022-08-05T01:07:37.366Z,79.90
2022-08-05T01:08:42.737Z,80.83
2022-08-05T01:09:38.376Z,80.94
2022-08-05T01:10:37.371Z,80.83
2022-08-05T01:11:37.667Z,81.13
2022-08-05T01:12:37.317Z,81.24
2022-08-05T01:13:59.187Z,81.13
2022-08-05T01:14:38.301Z,80.74
2022-08-05T01:15:37.305Z,80.94
2022-08-05T01:16:38.271Z,80.44
2022-08-05T01:17:40.254Z,80.54
2022-08-05T01:18:38.302Z,80.54
2022-08-05T01:19:56.188Z,80.34
2022-08-05T01:20:38.236Z,80.14
2022-08-05T01:21:38.049Z,80.24
2022-08-05T01:22:37.231Z,79.94
2022-08-05T01:23:37.207Z,79.74
2022-08-05T01:24:37.212Z,80.14
2022-08-05T01:25:40.067Z,80.04
2022-08-05T01:26:37.171Z,80.24
2022-08-05T01:27:37.178Z,80.14
2022-08-05T01:28:39.214Z,80.24
2022-08-05T01:29:46.219Z,80.14
2022-08-05T01:30:50.626Z,80.24
2022-08-05T01:32:28.072Z,80.34
2022-08-05T01:33:28.071Z,80.60
2022-08-05T01:34:29.081Z,80.54
2022-08-05T01:35:52.238Z,80.50
2022-08-05T01:36:29.034Z,80.20
2022-08-05T01:37:28.392Z,80.50
2022-08-05T01:38:29.886Z,80.26
2022-08-05T01:39:46.196Z,80.50
2022-08-05T01:40:29.225Z,80.50
2022-08-05T01:41:27.973Z,80.50
2022-08-05T01:42:28.031Z,80.60
2022-08-05T01:43:27.943Z,81.30
2022-08-05T01:44:35.326Z,81.20
2022-08-05T01:45:28.923Z,80.80
2022-08-05T01:46:42.933Z,81.43
2022-08-05T01:47:38.855Z,81.10
2022-08-05T01:48:28.892Z,81.40
2022-08-05T01:49:27.871Z,81.63
2022-08-05T01:50:29.647Z,81.60
2022-08-05T01:51:30.047Z,81.84
2022-08-05T01:52:27.856Z,81.70
2022-08-05T01:53:55.187Z,81.24
2022-08-05T01:54:28.828Z,81.93
2022-08-05T01:55:27.806Z,81.93
2022-08-05T01:58:11.343Z,82.43
2022-08-05T01:58:11.650Z,82.03
2022-08-05T01:58:40.300Z,82.43
2022-08-05T01:59:28.779Z,82.34
2022-08-05T02:00:30.253Z,82.14
2022-08-05T02:01:27.771Z,82.23
2022-08-05T02:02:28.646Z,82.34
2022-08-05T02:03:31.645Z,82.23
2022-08-05T02:04:27.727Z,82.43
2022-08-05T02:05:28.641Z,82.14
2022-08-05T02:06:37.575Z,82.23
2022-08-05T02:07:30.464Z,82.14
2022-08-05T02:08:30.802Z,82.34
2022-08-05T02:09:28.167Z,82.57
2022-08-05T02:10:28.699Z,82.28
2022-08-05T02:11:33.606Z,82.34
2022-08-05T02:12:28.645Z,82.34
2022-08-05T02:13:27.617Z,82.53
2022-08-05T02:14:28.605Z,82.73
2022-08-05T02:15:31.161Z,82.47
2022-08-05T02:16:28.591Z,82.47
2022-08-05T02:18:28.383Z,82.77
2022-08-05T02:18:34.305Z,82.43
2022-08-05T02:19:28.563Z,82.37
2022-08-05T02:20:28.549Z,82.67
2022-08-05T02:21:27.544Z,82.57
2022-08-05T02:22:27.575Z,82.28
2022-08-05T02:23:27.518Z,82.67
2022-08-05T02:24:27.499Z,82.67
2022-08-05T02:25:27.505Z,82.57
2022-08-05T02:26:28.497Z,82.28
2022-08-05T02:27:30.116Z,82.67
2022-08-05T02:28:31.274Z,82.37
2022-08-05T02:29:59.871Z,82.77
2022-08-05T02:30:28.442Z,82.57
2022-08-05T02:31:28.357Z,82.67
2022-08-05T02:32:29.351Z,83.01
2022-08-05T02:33:36.064Z,83.31
2022-08-05T02:34:28.399Z,83.57
2022-08-05T02:35:28.021Z,83.61
2022-08-05T02:36:27.891Z,83.51
2022-08-05T02:37:27.385Z,83.31
2022-08-05T02:38:27.354Z,83.21
2022-08-05T02:39:28.411Z,83.31
2022-08-05T02:40:27.531Z,83.11
2022-08-05T02:41:28.982Z,83.11
2022-08-05T02:42:31.930Z,83.21
2022-08-05T02:43:28.297Z,83.61
2022-08-05T02:44:27.285Z,83.81
2022-08-05T02:45:28.530Z,83.51
2022-08-05T02:46:28.273Z,83.71
2022-08-05T02:48:06.860Z,83.81
2022-08-05T02:48:29.549Z,84.01
2022-08-05T02:49:27.244Z,83.81
2022-08-05T02:50:28.231Z,83.81
2022-08-05T02:51:48.451Z,84.21
2022-08-05T02:52:30.250Z,84.11
2022-08-05T02:53:27.223Z,84.05
2022-08-05T02:54:34.463Z,84.45
2022-08-05T02:55:54.399Z,84.75
2022-08-05T02:56:28.166Z,84.55
2022-08-05T02:58:10.567Z,84.61
2022-08-05T02:58:28.945Z,84.11
2022-08-05T02:59:27.826Z,83.95
2022-08-05T03:00:27.131Z,83.61
2022-08-05T03:01:27.320Z,84.11
2022-08-05T03:02:27.414Z,83.41
2022-08-05T03:03:27.094Z,83.71
2022-08-05T03:04:28.071Z,83.71
2022-08-05T03:06:53.881Z,83.71
2022-08-05T03:06:56.887Z,83.71
2022-08-05T03:08:00.669Z,83.61
2022-08-05T03:08:29.726Z,83.61
2022-08-05T03:09:37.618Z,83.71
2022-08-05T03:10:28.009Z,83.75
2022-08-05T03:11:55.096Z,83.55
2022-08-05T03:12:27.996Z,83.31
2022-08-05T03:13:27.674Z,83.31
2022-08-05T03:14:27.991Z,83.41
2022-08-05T03:15:26.963Z,83.41
2022-08-05T03:16:26.953Z,83.31
2022-08-05T03:17:26.972Z,83.11
2022-08-05T03:18:30.115Z,83.61
2022-08-05T03:19:34.231Z,83.21
2022-08-05T03:20:27.922Z,83.31
2022-08-05T03:21:28.759Z,83.41
2022-08-05T03:22:32.182Z,83.61
2022-08-05T03:23:27.881Z,83.55
2022-08-05T03:24:30.063Z,84.01
2022-08-05T03:25:33.586Z,83.95
2022-08-05T03:26:31.095Z,83.61
2022-08-05T03:27:39.213Z,83.71
2022-08-05T03:28:27.830Z,83.55
2022-08-05T03:29:45.424Z,83.15
2022-08-05T03:30:28.672Z,83.61
2022-08-05T03:31:55.740Z,83.41
2022-08-05T03:32:31.090Z,83.91
2022-08-05T03:33:42.217Z,84.51
2022-08-05T03:34:27.752Z,84.25
2022-08-05T03:35:26.745Z,84.65
2022-08-05T03:36:30.368Z,84.75
2022-08-05T03:37:26.976Z,84.55
2022-08-05T03:38:33.356Z,84.55
2022-08-05T03:39:27.974Z,84.35
2022-08-05T03:40:32.012Z,84.75
2022-08-05T03:41:33.278Z,84.85
2022-08-05T03:42:28.920Z,84.75
2022-08-05T03:44:09.122Z,84.95
2022-08-05T03:44:28.983Z,84.75
2022-08-05T03:45:26.640Z,84.55
2022-08-05T03:46:29.592Z,84.25
2022-08-05T03:47:30.545Z,84.55
2022-08-05T03:48:27.608Z,84.25
2022-08-05T03:49:31.109Z,84.45
2022-08-05T03:50:27.579Z,84.75
2022-08-05T03:52:37.211Z,84.55
2022-08-05T03:52:37.482Z,84.75
2022-08-05T03:55:52.963Z,84.35
2022-08-05T03:55:53.614Z,84.65
2022-08-05T03:56:05.809Z,84.55
2022-08-05T03:56:33.078Z,83.95
2022-08-05T03:57:41.110Z,84.31
2022-08-05T03:58:29.143Z,84.55
2022-08-05T03:59:26.492Z,83.81
2022-08-05T04:00:26.476Z,83.71
2022-08-05T04:01:26.503Z,83.41
2022-08-05T04:02:38.310Z,83.51
2022-08-05T04:03:28.509Z,83.41
2022-08-05T04:04:26.627Z,82.47
2022-08-05T04:05:27.996Z,82.77
2022-08-05T04:06:27.422Z,82.37
2022-08-05T04:07:26.397Z,82.14
2022-08-05T04:08:34.677Z,82.14
2022-08-05T04:09:27.390Z,81.73
2022-08-05T04:10:27.768Z,81.43
2022-08-05T04:11:47.570Z,81.34
2022-08-05T04:12:27.354Z,81.20
2022-08-05T04:13:26.351Z,81.49
2022-08-05T04:14:30.233Z,81.13
2022-08-05T04:15:26.310Z,81.43
2022-08-05T04:16:32.407Z,81.49
2022-08-05T04:17:36.437Z,81.49
2022-08-05T04:18:27.308Z,81.70
2022-08-05T04:19:26.271Z,81.70
2022-08-05T04:20:26.258Z,81.49
2022-08-05T04:22:08.506Z,81.40
2022-08-05T04:22:27.236Z,81.70
2022-08-05T04:24:04.695Z,81.40
2022-08-05T04:24:27.642Z,81.70
2022-08-05T04:25:57.976Z,81.60
2022-08-05T04:26:27.219Z,81.96
2022-08-05T04:27:41.836Z,81.60
2022-08-05T04:28:30.953Z,81.46
2022-08-05T04:29:27.173Z,81.16
2022-08-05T04:30:26.369Z,81.56
2022-08-05T04:31:27.715Z,81.26
2022-08-05T04:32:30.854Z,81.46
2022-08-05T04:33:54.774Z,80.56
2022-08-05T04:34:32.284Z,79.96
2022-08-05T04:35:27.102Z,80.06
2022-08-05T04:36:46.121Z,79.13
2022-08-05T04:38:02.089Z,79.72
2022-08-05T04:38:39.796Z,79.33
2022-08-05T04:39:27.563Z,78.99
2022-08-05T04:40:26.043Z,79.09
2022-08-05T04:41:37.100Z,79.19
2022-08-05T04:42:27.029Z,79.19
2022-08-05T04:43:26.100Z,78.99
2022-08-05T04:44:30.266Z,79.28
2022-08-05T04:45:47.877Z,79.09
2022-08-05T04:46:27.913Z,79.19
2022-08-05T04:47:26.337Z,79.49
2022-08-05T04:48:27.964Z,79.28
2022-08-05T04:49:39.028Z,79.79
2022-08-05T04:50:34.453Z,79.52
2022-08-05T04:51:30.639Z,79.49
2022-08-05T04:52:27.395Z,79.58
2022-08-05T04:53:25.905Z,79.82
2022-08-05T04:54:25.905Z,79.82
2022-08-05T04:56:05.091Z,80.42
2022-08-05T04:56:34.693Z,80.62
2022-08-05T04:57:29.010Z,80.26
2022-08-05T04:58:25.858Z,81.12
2022-08-05T04:59:38.443Z,81.22
2022-08-05T05:00:26.857Z,80.96
2022-08-05T05:01:33.470Z,81.16
2022-08-05T05:02:36.282Z,81.46
2022-08-05T05:03:26.807Z,81.66
2022-08-05T05:04:26.816Z,81.76
2022-08-05T05:05:28.856Z,81.66
2022-08-05T05:06:40.280Z,81.85
2022-08-05T05:07:29.691Z,81.96
2022-08-05T05:08:30.094Z,81.76
2022-08-05T05:09:25.736Z,81.56
2022-08-05T05:10:25.742Z,81.16
2022-08-05T05:11:52.829Z,81.42
2022-08-05T05:12:27.442Z,81.72
2022-08-05T05:13:25.695Z,81.42
2022-08-05T05:14:28.080Z,81.32
2022-08-05T05:15:56.253Z,81.02
2022-08-05T05:16:30.256Z,81.12
2022-08-05T05:17:57.101Z,81.32
2022-08-05T05:18:28.378Z,81.12
2022-08-05T05:19:26.639Z,80.58
2022-08-05T05:20:28.420Z,80.08
2022-08-05T05:21:27.203Z,79.55
2022-08-05T05:22:26.022Z,79.55
2022-08-05T05:23:25.588Z,79.25
2022-08-05T05:24:56.442Z,79.45
2022-08-05T05:25:32.590Z,79.49
2022-08-05T05:26:28.786Z,79.65
2022-08-05T05:27:44.656Z,80.08
2022-08-05T05:28:26.536Z,79.99
2022-08-05T05:29:25.538Z,80.68
2022-08-05T05:30:30.901Z,81.28
2022-08-05T05:31:26.506Z,82.12
2022-08-05T05:32:25.514Z,81.52
2022-08-05T05:33:25.483Z,82.15
2022-08-05T05:34:26.975Z,82.26
2022-08-05T05:35:25.476Z,82.26
2022-08-05T05:36:25.459Z,82.65
2022-08-05T05:37:37.311Z,82.65
2022-08-05T05:38:27.447Z,82.45
2022-08-05T05:39:25.461Z,82.45
2022-08-05T05:40:26.409Z,82.56
2022-08-05T05:41:25.398Z,82.45
2022-08-05T05:42:26.405Z,82.65
2022-08-05T05:43:54.793Z,82.35
2022-08-05T05:44:35.761Z,82.56
2022-08-05T05:45:26.361Z,82.35
2022-08-05T05:46:25.349Z,82.86
2022-08-05T05:47:30.333Z,83.45
2022-08-05T05:48:27.723Z,83.15
2022-08-05T05:49:25.313Z,83.19
2022-08-05T05:50:25.743Z,83.45
2022-08-05T05:51:25.530Z,83.79
2022-08-05T05:52:28.587Z,84.09
2022-08-05T05:53:26.267Z,83.99
2022-08-05T05:54:49.687Z,83.75
2022-08-05T05:55:51.656Z,83.65
2022-08-05T05:56:33.347Z,84.89
2022-08-05T05:57:26.442Z,85.09
2022-08-05T05:58:32.079Z,86.08
2022-08-05T05:59:28.636Z,86.38
2022-08-05T06:00:31.398Z,86.72
2022-08-05T06:01:29.272Z,86.82
2022-08-05T06:02:37.617Z,86.93
2022-08-05T06:03:39.994Z,87.58
2022-08-05T06:04:26.196Z,86.79
2022-08-05T06:05:25.227Z,86.93
2022-08-05T06:06:25.144Z,87.58
2022-08-05T06:07:41.834Z,87.62
2022-08-05T06:08:31.662Z,87.92
2022-08-05T06:09:52.651Z,88.02
2022-08-05T06:10:29.230Z,88.02
2022-08-05T06:11:25.070Z,88.32
2022-08-05T06:12:27.123Z,88.46
2022-08-05T06:13:25.059Z,88.62
2022-08-05T06:14:25.354Z,89.02
2022-08-05T06:15:25.037Z,89.16
2022-08-05T06:16:29.496Z,89.72
2022-08-05T06:17:30.843Z,89.36
2022-08-05T06:18:31.183Z,89.66
2022-08-05T06:19:34.865Z,89.36
2022-08-05T06:20:25.975Z,89.26
2022-08-05T06:21:25.162Z,89.47
2022-08-05T06:22:25.980Z,88.56
2022-08-05T06:23:24.950Z,88.52
2022-08-05T06:24:25.897Z,88.62
2022-08-05T06:26:12.890Z,88.02
2022-08-05T06:26:25.920Z,87.92
2022-08-05T06:28:11.537Z,87.92
2022-08-05T06:28:28.520Z,87.68
2022-08-05T06:29:46.670Z,86.54
2022-08-05T06:30:25.871Z,86.20
2022-08-05T06:31:30.521Z,85.71
2022-08-05T06:32:29.166Z,85.30
2022-08-05T06:34:04.618Z,84.91
2022-08-05T06:34:27.725Z,85.11
2022-08-05T06:36:07.720Z,85.00
2022-08-05T06:36:26.147Z,84.51
2022-08-05T06:37:56.182Z,85.36
2022-08-05T06:38:36.708Z,84.51
2022-08-05T06:39:26.837Z,84.81
2022-08-05T06:40:28.087Z,85.74
2022-08-05T06:41:25.748Z,85.55
2022-08-05T06:42:25.346Z,86.34
2022-08-05T06:43:57.268Z,85.44
2022-08-05T06:44:25.978Z,86.24
2022-08-05T06:45:45.122Z,86.68
2022-08-05T06:46:29.667Z,87.73
2022-08-05T06:48:11.758Z,87.52
2022-08-05T06:48:52.573Z,87.58
2022-08-05T06:50:00.686Z,87.38
2022-08-05T06:50:25.652Z,87.42
2022-08-05T06:51:29.905Z,88.02
2022-08-05T06:52:37.120Z,88.22
2022-08-05T06:53:28.195Z,88.32
2022-08-05T06:54:25.815Z,88.02
2022-08-05T06:55:24.608Z,88.52
2022-08-05T06:56:26.442Z,87.92
2022-08-05T06:58:02.522Z,88.32
2022-08-05T06:58:35.082Z,88.82
2022-08-05T06:59:25.585Z,88.62
2022-08-05T07:00:25.037Z,88.52
2022-08-05T07:01:32.075Z,88.62
2022-08-05T07:02:25.567Z,89.32
2022-08-05T07:03:32.325Z,89.72
2022-08-05T07:04:25.519Z,89.26
2022-08-05T07:05:37.061Z,89.56
2022-08-05T07:06:27.661Z,89.56
2022-08-05T07:07:35.551Z,89.66
2022-08-05T07:08:25.463Z,89.26
2022-08-05T07:09:24.987Z,89.86
2022-08-05T07:10:32.222Z,89.47
2022-08-05T07:11:25.730Z,89.26
2022-08-05T07:12:25.315Z,89.56
2022-08-05T07:13:56.888Z,90.30
2022-08-05T07:14:29.368Z,90.41
2022-08-05T07:15:34.420Z,90.00
2022-08-05T07:17:57.285Z,90.50
2022-08-05T07:18:02.124Z,90.41
2022-08-05T07:18:29.204Z,90.50
2022-08-05T07:20:05.823Z,90.70
2022-08-05T07:20:34.062Z,90.91
2022-08-05T07:21:25.946Z,91.00
2022-08-05T07:22:28.631Z,92.14
2022-08-05T07:23:26.559Z,92.40
2022-08-05T07:24:24.321Z,92.35
2022-08-05T07:25:55.060Z,93.65
2022-08-05T07:26:25.728Z,93.59
2022-08-05T07:27:27.681Z,93.74
2022-08-05T07:28:25.380Z,93.59
2022-08-05T07:29:25.520Z,94.19
2022-08-05T07:30:31.044Z,94.29
2022-08-05T07:31:40.870Z,94.39
2022-08-05T07:32:26.215Z,94.49
2022-08-05T07:33:35.045Z,94.79
2022-08-05T07:34:28.588Z,94.99
2022-08-05T07:36:04.333Z,94.59
2022-08-05T07:36:25.156Z,95.39
2022-08-05T07:37:24.514Z,95.29
2022-08-05T07:38:32.371Z,95.39
2022-08-05T07:40:04.545Z,95.84
2022-08-05T07:40:31.419Z,95.84
2022-08-05T07:42:08.761Z,94.45
2022-08-05T07:42:33.843Z,94.59
2022-08-05T07:43:25.084Z,95.34
2022-08-05T07:44:24.175Z,95.39
2022-08-05T07:45:31.304Z,94.99
2022-08-05T07:46:26.179Z,95.49
2022-08-05T07:47:25.874Z,95.89
2022-08-05T07:49:00.503Z,94.69
2022-08-05T07:49:25.031Z,95.19
2022-08-05T07:50:28.783Z,95.89
2022-08-05T07:51:36.699Z,95.59
2022-08-05T07:52:26.350Z,96.14
2022-08-05T07:53:23.971Z,95.89
2022-08-05T07:54:26.651Z,94.69
2022-08-05T07:55:44.360Z,95.04
2022-08-05T07:56:59.950Z,94.95
2022-08-05T07:57:50.524Z,94.95
2022-08-05T07:58:57.786Z,94.74
2022-08-05T07:59:38.808Z,94.04
2022-08-05T08:00:24.968Z,94.95
2022-08-05T08:01:26.476Z,94.90
2022-08-05T08:02:31.401Z,95.10
2022-08-05T08:03:44.423Z,95.55
2022-08-05T08:04:37.537Z,95.06
2022-08-05T08:07:25.069Z,92.46
2022-08-05T08:08:24.155Z,93.26
2022-08-05T08:09:26.648Z,93.05
2022-08-05T08:10:24.808Z,92.76
2022-08-05T08:11:27.789Z,92.66
2022-08-05T08:12:36.848Z,92.36
2022-08-05T08:13:28.979Z,92.86
2022-08-05T08:14:26.275Z,93.01
2022-08-05T08:15:37.076Z,92.51
2022-08-05T08:16:34.570Z,93.01
2022-08-05T08:17:28.657Z,93.12
2022-08-05T08:18:26.240Z,93.01
2022-08-05T08:20:22.989Z,93.12
2022-08-05T08:21:01.011Z,93.31
2022-08-05T08:21:27.302Z,93.31
2022-08-05T08:22:27.888Z,93.31
2022-08-05T08:24:02.054Z,91.97
2022-08-05T08:24:51.093Z,92.52
2022-08-05T08:25:59.831Z,91.57
2022-08-05T08:26:29.805Z,91.73
2022-08-05T08:27:40.235Z,91.97
2022-08-05T08:28:35.557Z,91.17
2022-08-05T08:30:04.073Z,92.27
2022-08-05T08:30:32.568Z,91.53
2022-08-05T08:31:27.167Z,90.73
2022-08-05T08:32:27.886Z,90.67
2022-08-05T08:33:23.553Z,91.03
2022-08-05T08:34:29.856Z,91.93
2022-08-05T08:35:26.544Z,92.22
2022-08-05T08:36:39.284Z,89.87
2022-08-05T08:37:27.991Z,90.67
2022-08-05T08:38:35.262Z,90.97
2022-08-05T08:39:24.508Z,92.17
2022-08-05T08:40:23.479Z,92.17
2022-08-05T08:41:25.912Z,91.63
2022-08-05T08:42:46.941Z,92.22
2022-08-05T08:45:18.095Z,91.63
2022-08-05T08:45:18.598Z,91.57
2022-08-05T08:45:27.268Z,90.58
2022-08-05T08:46:24.457Z,91.27
2022-08-05T08:48:06.328Z,90.97
2022-08-05T08:49:03.067Z,90.81
2022-08-05T08:50:23.482Z,92.11
2022-08-05T08:50:52.006Z,92.21
2022-08-05T08:52:03.554Z,91.22
2022-08-05T08:52:24.934Z,91.97
2022-08-05T08:53:23.325Z,90.81
2022-08-05T08:54:27.422Z,91.31
2022-08-05T08:56:01.710Z,91.42
2022-08-05T08:56:27.069Z,91.52
2022-08-05T08:57:23.303Z,90.77
2022-08-05T08:58:26.049Z,91.07
2022-08-05T08:59:27.590Z,90.63
2022-08-05T09:00:23.256Z,90.93
2022-08-05T09:01:23.259Z,90.03
2022-08-05T09:02:26.564Z,89.19
2022-08-05T09:03:23.223Z,89.34
2022-08-05T09:04:23.205Z,89.49
2022-08-05T09:05:39.018Z,90.09
2022-08-05T09:06:29.614Z,89.79
2022-08-05T09:07:28.800Z,89.79
2022-08-05T09:08:26.605Z,90.33
2022-08-05T09:09:23.171Z,90.73
2022-08-05T09:10:27.730Z,90.73
2022-08-05T09:11:51.111Z,90.03
2022-08-05T09:12:27.320Z,89.94
2022-08-05T09:13:23.623Z,90.23
2022-08-05T09:14:59.201Z,89.87
2022-08-05T09:15:24.096Z,90.73
2022-08-05T09:16:23.087Z,90.28
2022-08-05T09:17:42.238Z,89.83
2022-08-05T09:18:24.063Z,90.23
2022-08-05T09:19:27.688Z,91.03
2022-08-05T09:20:37.318Z,90.17
2022-08-05T09:22:22.326Z,90.47
2022-08-05T09:22:31.072Z,90.47
2022-08-05T09:23:27.267Z,90.97
2022-08-05T09:24:24.225Z,92.21
2022-08-05T09:25:24.350Z,91.87
2022-08-05T09:26:23.977Z,92.32
2022-08-05T09:28:04.272Z,92.37
2022-08-05T09:28:23.956Z,92.67
2022-08-05T09:29:31.002Z,92.57
2022-08-05T09:30:23.944Z,92.27
2022-08-05T09:32:40.632Z,91.67
2022-08-05T09:32:41.581Z,92.27
2022-08-05T09:33:23.921Z,92.37
2022-08-05T09:34:26.055Z,92.37
2022-08-05T09:35:26.554Z,91.57
2022-08-05T09:36:27.796Z,92.27
2022-08-05T09:38:16.773Z,92.07
2022-08-05T09:38:29.539Z,91.57
2022-08-05T09:39:23.888Z,91.97
2022-08-05T09:40:22.962Z,91.17
2022-08-05T09:41:22.822Z,91.11
2022-08-05T09:42:23.931Z,91.27
2022-08-05T09:43:23.796Z,91.27
2022-08-05T09:44:22.784Z,91.57
2022-08-05T09:46:06.729Z,92.07
2022-08-05T09:46:27.613Z,91.97
2022-08-05T09:47:22.751Z,90.53
2022-08-05T09:48:22.734Z,89.73
2022-08-05T09:49:22.727Z,89.64
2022-08-05T09:50:43.561Z,89.53
2022-08-05T09:51:23.709Z,89.03
2022-08-05T09:52:23.034Z,89.69
2022-08-05T09:53:53.989Z,89.19
2022-08-05T09:54:29.365Z,89.53
2022-08-05T09:55:57.494Z,89.49
2022-08-05T09:56:23.655Z,89.53
2022-08-05T09:57:23.481Z,89.69
2022-08-05T09:58:22.627Z,89.89
2022-08-05T09:59:22.624Z,90.50
2022-08-05T10:00:22.611Z,90.66
2022-08-05T10:01:32.372Z,89.22
2022-08-05T10:02:23.920Z,87.43
2022-08-05T10:03:22.600Z,87.59
2022-08-05T10:04:29.321Z,85.80
2022-08-05T10:05:23.556Z,87.33
2022-08-05T10:06:22.551Z,86.93
2022-08-05T10:07:50.525Z,87.73
2022-08-05T10:08:35.913Z,87.83
2022-08-05T10:09:27.350Z,88.09
2022-08-05T10:10:28.063Z,86.10
2022-08-05T10:11:22.797Z,86.33
2022-08-05T10:12:31.690Z,87.83
2022-08-05T10:13:23.464Z,88.57
2022-08-05T10:14:22.456Z,88.62
2022-08-05T10:15:22.450Z,87.63
2022-08-05T10:16:22.434Z,89.08
2022-08-05T10:17:37.667Z,87.49
2022-08-05T10:18:23.415Z,87.09
2022-08-05T10:19:23.804Z,85.89
2022-08-05T10:20:23.398Z,85.74
2022-08-05T10:21:22.401Z,86.24
2022-08-05T10:22:29.795Z,87.57
2022-08-05T10:23:55.325Z,87.93
2022-08-05T10:24:26.939Z,87.43
2022-08-05T10:25:22.339Z,88.02
2022-08-05T10:26:24.211Z,87.59
2022-08-05T10:27:26.346Z,87.19
2022-08-05T10:28:30.292Z,84.64
2022-08-05T10:29:24.220Z,85.30
2022-08-05T10:32:47.741Z,87.49
2022-08-05T10:32:52.647Z,86.41
2022-08-05T10:33:01.149Z,84.38
2022-08-05T10:33:23.295Z,83.98
2022-08-05T10:34:25.587Z,81.51
2022-08-05T10:35:23.267Z,83.43
2022-08-05T10:36:25.793Z,82.64
2022-08-05T10:37:22.216Z,85.87
2022-08-05T10:38:22.207Z,87.12
2022-08-05T10:39:24.185Z,85.89
2022-08-05T10:40:27.728Z,80.67
2022-08-05T10:41:23.282Z,81.60
2022-08-05T10:42:22.732Z,80.25
2022-08-05T10:43:23.289Z,80.02
2022-08-05T10:44:23.154Z,80.41
2022-08-05T10:45:39.750Z,81.74
2022-08-05T10:46:23.725Z,81.05
2022-08-05T10:47:26.478Z,81.15
2022-08-05T10:48:30.263Z,80.75
2022-08-05T10:49:26.795Z,81.45
2022-08-05T10:50:36.536Z,83.03
2022-08-05T10:51:29.341Z,82.04
2022-08-05T10:52:23.414Z,82.20
2022-08-05T10:53:22.049Z,81.46
2022-08-05T10:54:23.023Z,80.67
2022-08-05T10:55:23.032Z,79.78
2022-08-05T10:56:26.034Z,79.05
2022-08-05T10:57:22.022Z,79.58
2022-08-05T10:58:22.015Z,78.92
2022-08-05T11:00:02.996Z,79.75
2022-08-05T11:00:23.189Z,81.09
2022-08-05T11:01:28.249Z,81.18
2022-08-05T11:02:37.490Z,81.18
2022-08-05T11:03:26.636Z,80.94
2022-08-05T11:04:21.954Z,80.21
2022-08-05T11:05:25.232Z,79.62
2022-08-05T11:06:22.921Z,79.48
2022-08-05T11:07:32.761Z,79.08
2022-08-05T11:08:37.152Z,78.95
2022-08-05T11:09:24.408Z,79.70
2022-08-05T11:10:22.891Z,79.46
2022-08-05T11:11:21.864Z,79.33
2022-08-05T11:12:22.044Z,77.34
2022-08-05T11:13:21.843Z,75.37
2022-08-05T11:14:37.095Z,76.16
2022-08-05T11:15:22.814Z,76.20
2022-08-05T11:16:21.823Z,76.39
2022-08-05T11:17:57.083Z,76.20
2022-08-05T11:18:22.793Z,75.70
2022-08-05T11:20:10.225Z,76.56
2022-08-05T11:20:22.765Z,76.85
2022-08-05T11:21:21.752Z,75.16
2022-08-05T11:22:21.767Z,74.14
2022-08-05T11:23:21.738Z,74.74
2022-08-05T11:24:30.815Z,75.13
2022-08-05T11:26:05.499Z,74.93
2022-08-05T11:26:29.267Z,74.24
2022-08-05T11:27:22.954Z,74.30
2022-08-05T11:28:21.677Z,74.70
2022-08-05T11:29:21.668Z,73.87
2022-08-05T11:30:21.663Z,71.60
2022-08-05T11:31:54.420Z,70.90
2022-08-05T11:32:22.653Z,71.50
2022-08-05T11:33:21.631Z,71.80
2022-08-05T11:34:22.798Z,72.09
2022-08-05T11:35:21.607Z,73.34
2022-08-05T11:36:34.532Z,71.92
2022-08-05T11:38:28.420Z,67.84
2022-08-05T11:38:28.838Z,69.16
2022-08-05T11:39:22.695Z,69.12
2022-08-05T11:40:21.589Z,70.54
2022-08-05T11:41:58.034Z,68.96
2022-08-05T11:42:22.527Z,68.79
2022-08-05T11:44:00.713Z,69.22
2022-08-05T11:44:40.336Z,70.57
2022-08-05T11:46:15.369Z,69.88
2022-08-05T11:46:32.147Z,69.16
2022-08-05T11:47:48.283Z,67.94
2022-08-05T11:48:22.475Z,66.96
2022-08-05T11:49:21.461Z,66.39
2022-08-05T11:50:21.450Z,66.20
2022-08-05T11:51:44.469Z,66.06
2022-08-05T11:52:22.945Z,68.04
2022-08-05T11:53:22.437Z,68.40
2022-08-05T11:54:21.423Z,67.51
2022-08-05T11:55:21.570Z,66.89
2022-08-05T11:56:22.404Z,65.70
2022-08-05T11:57:25.895Z,65.08
2022-08-05T11:58:21.636Z,63.70
2022-08-05T11:59:21.469Z,64.89
2022-08-05T12:00:21.363Z,64.29
2022-08-05T12:01:21.344Z,64.79
2022-08-05T12:02:24.306Z,65.15
2022-08-05T12:03:29.650Z,61.83
2022-08-05T12:04:22.380Z,62.52
2022-08-05T12:05:23.918Z,64.86
2022-08-05T12:06:22.299Z,63.12
2022-08-05T12:08:07.486Z,63.12
2022-08-05T12:08:22.259Z,63.21
2022-08-05T12:09:21.261Z,65.11
2022-08-05T12:10:22.300Z,64.85
2022-08-05T12:11:21.227Z,64.39
2022-08-05T12:12:21.235Z,66.85
2022-08-05T12:13:47.730Z,64.98
2022-08-05T12:14:22.199Z,66.36
2022-08-05T12:15:38.041Z,64.56
2022-08-05T12:16:27.010Z,64.82
2022-08-05T12:18:02.605Z,65.11
2022-08-05T12:18:24.365Z,64.23
2022-08-05T12:20:17.273Z,66.03
2022-08-05T12:20:28.869Z,65.18
2022-08-05T12:21:23.574Z,65.74
2022-08-05T12:22:21.125Z,65.70
2022-08-05T12:23:21.124Z,65.80
2022-08-05T12:24:21.105Z,63.84
2022-08-05T12:25:22.281Z,64.46
2022-08-05T12:26:23.199Z,65.28
2022-08-05T12:27:21.319Z,64.95
2022-08-05T12:28:21.063Z,65.15
2022-08-05T12:29:23.090Z,64.39
2022-08-05T12:30:21.047Z,64.59
2022-08-05T12:31:23.473Z,66.63
2022-08-05T12:32:22.041Z,66.56
2022-08-05T12:33:35.936Z,66.82
2022-08-05T12:34:23.715Z,66.95
2022-08-05T12:35:21.664Z,67.48
2022-08-05T12:36:21.069Z,66.56
2022-08-05T12:37:21.749Z,66.75
2022-08-05T12:38:22.421Z,66.66
2022-08-05T12:39:22.066Z,65.25
2022-08-05T12:40:26.869Z,66.36
2022-08-05T12:41:21.924Z,66.20
2022-08-05T12:42:21.934Z,66.69
2022-08-05T12:43:21.342Z,66.85
2022-08-05T12:44:21.684Z,67.41
2022-08-05T12:45:22.124Z,66.06
2022-08-05T12:46:28.090Z,65.97
2022-08-05T12:47:21.877Z,67.38
2022-08-05T12:48:32.249Z,64.98
2022-08-05T12:49:25.560Z,64.85
2022-08-05T12:50:20.844Z,64.39
2022-08-05T12:52:10.685Z,64.39
2022-08-05T12:52:25.393Z,65.15
2022-08-05T12:53:21.809Z,64.36
2022-08-05T12:54:23.684Z,65.61
2022-08-05T12:55:22.019Z,63.21